Time;durP1;ratioP1;P1;durP2;ratioP2;P2;SDS_P1;SDS_P2;PMS_P1;PMS_P2;Temp;Humidity;BMP_temperature;BMP_pressure;BME280_temperature;BME280_humidity;BME280_pressure;Samples;Min_cycle;Max_cycle;Signal;HPM_P1;HPM_P2
2022/11/18 00:00:18;;;;;;;26.88;19.85;;;6.70;99.90;;;;;;4994428;28;20507;-72
2022/11/18 00:02:44;;;;;;;28.90;20.00;;;6.70;99.90;;;;;;4994957;28;20091;-72
2022/11/18 00:05:09;;;;;;;26.40;18.85;;;6.80;99.90;;;;;;4995050;28;20177;-72
2022/11/18 00:07:35;;;;;;;25.50;18.95;;;6.70;99.90;;;;;;4979870;28;20042;-72
2022/11/18 00:10:00;;;;;;;29.92;19.50;;;6.70;99.90;;;;;;4995546;28;20458;-73
2022/11/18 00:15:10;;;;;;;26.20;18.60;;;6.70;99.90;;;;;;4995448;28;20042;-72
2022/11/18 00:17:35;;;;;;;27.50;19.27;;;6.80;99.90;;;;;;4996103;28;20385;-73
2022/11/18 00:20:01;;;;;;;25.38;18.60;;;6.70;99.90;;;;;;4995308;28;20042;-74
2022/11/18 00:22:26;;;;;;;28.38;18.85;;;6.70;99.90;;;;;;4995184;28;20046;-73
2022/11/18 00:24:52;;;;;;;24.20;18.42;;;6.80;99.90;;;;;;4995620;28;20431;-72
2022/11/18 00:27:17;;;;;;;26.08;18.85;;;6.70;99.90;;;;;;4996113;28;20518;-73
2022/11/18 00:29:43;;;;;;;27.42;18.77;;;6.70;99.90;;;;;;4994494;28;20045;-73
2022/11/18 00:32:08;;;;;;;28.25;20.77;;;6.70;99.90;;;;;;4980048;28;20508;-73
2022/11/18 00:34:34;;;;;;;26.40;19.58;;;6.70;99.90;;;;;;4996344;28;20044;-73
2022/11/18 00:36:59;;;;;;;29.52;18.98;;;6.70;99.90;;;;;;4996215;28;20077;-72
2022/11/18 00:39:25;;;;;;;27.90;20.55;;;6.70;99.90;;;;;;4993882;28;20081;-73
2022/11/18 00:44:35;;;;;;;27.67;19.98;;;6.70;99.90;;;;;;4984347;28;20038;-73
2022/11/18 00:47:00;;;;;;;28.05;19.42;;;6.70;99.90;;;;;;4995721;28;20037;-73
2022/11/18 00:49:26;;;;;;;28.27;19.55;;;6.70;99.90;;;;;;4995555;28;20056;-72
2022/11/18 00:51:51;;;;;;;26.27;18.90;;;6.70;99.90;;;;;;4994439;28;20053;-73
2022/11/18 00:54:17;;;;;;;29.73;19.27;;;6.70;99.90;;;;;;4995607;28;20041;-74
2022/11/18 00:56:42;;;;;;;27.73;20.27;;;6.70;99.90;;;;;;4995613;28;20152;-73
2022/11/18 00:59:08;;;;;;;29.88;19.90;;;6.70;99.90;;;;;;4994479;28;20033;-74
2022/11/18 01:01:33;;;;;;;29.58;19.00;;;6.70;99.90;;;;;;4994679;28;20037;-73
2022/11/18 01:03:59;;;;;;;26.90;19.45;;;6.70;99.90;;;;;;4995410;28;20044;-72
2022/11/18 01:06:24;;;;;;;29.73;19.60;;;6.70;99.90;;;;;;4995600;28;20080;-73
2022/11/18 01:08:50;;;;;;;26.98;19.25;;;6.70;99.90;;;;;;4978240;28;20488;-72
2022/11/18 01:14:00;;;;;;;29.20;19.85;;;6.80;99.90;;;;;;4993315;28;20100;-72
2022/11/18 01:16:28;;;;;;;31.13;20.33;;;6.70;99.90;;;;;;4995139;28;20042;-73
2022/11/18 01:18:54;;;;;;;32.42;20.45;;;6.70;99.90;;;;;;4991722;28;20041;-73
2022/11/18 01:21:19;;;;;;;28.75;20.25;;;6.70;99.90;;;;;;4994993;28;20099;-74
2022/11/18 01:23:45;;;;;;;31.27;21.30;;;6.70;99.90;;;;;;4995335;28;20053;-73
2022/11/18 01:26:13;;;;;;;29.35;19.95;;;6.70;99.90;;;;;;4994607;28;20064;-73
2022/11/18 01:28:39;;;;;;;29.83;20.67;;;6.70;99.90;;;;;;4994656;28;20069;-73
2022/11/18 01:31:06;;;;;;;27.83;20.05;;;6.70;99.90;;;;;;4995021;28;20507;-72
2022/11/18 01:33:32;;;;;;;30.90;19.95;;;6.70;99.90;;;;;;4995063;28;20042;-73
2022/11/18 01:35:57;;;;;;;31.33;20.60;;;6.70;99.90;;;;;;4994118;28;20034;-73
2022/11/18 01:38:23;;;;;;;28.90;19.48;;;6.70;99.90;;;;;;4994555;28;20088;-73
2022/11/18 01:40:49;;;;;;;30.60;19.45;;;6.70;99.90;;;;;;4993691;28;20048;-73
2022/11/18 01:43:17;;;;;;;29.75;18.85;;;6.70;99.90;;;;;;4993554;28;20072;-73
2022/11/18 01:45:46;;;;;;;32.90;18.70;;;6.70;99.90;;;;;;4993674;28;20120;-73
2022/11/18 01:48:32;;;;;;;31.58;19.23;;;6.70;99.90;;;;;;4977176;28;20682;-73
2022/11/18 01:51:04;;;;;;;27.15;17.98;;;6.70;99.90;;;;;;4994552;28;20073;-73
2022/11/18 01:53:34;;;;;;;28.80;18.67;;;6.70;99.90;;;;;;4992711;28;20431;-73
2022/11/18 01:56:13;;;;;;;30.50;18.52;;;6.70;99.90;;;;;;4992191;28;20121;-73
2022/11/18 01:58:44;;;;;;;27.58;18.63;;;6.70;99.90;;;;;;4987536;28;20033;-73
2022/11/18 02:01:10;;;;;;;28.75;17.98;;;6.70;99.90;;;;;;4993437;28;20049;-73
2022/11/18 02:03:36;;;;;;;28.60;18.63;;;6.70;99.90;;;;;;4994522;28;20200;-73
2022/11/18 02:06:03;;;;;;;26.75;18.15;;;6.70;99.90;;;;;;4994453;28;20049;-73
2022/11/18 02:08:30;;;;;;;27.33;17.52;;;6.60;99.90;;;;;;4993183;28;20435;-73
2022/11/18 02:10:55;;;;;;;27.88;17.88;;;6.60;99.90;;;;;;4994095;28;20053;-73
2022/11/18 02:13:21;;;;;;;30.83;18.42;;;6.60;99.90;;;;;;4994418;28;20604;-73
2022/11/18 02:16:08;;;;;;;28.13;17.88;;;6.70;99.90;;;;;;4994521;28;20037;-73
2022/11/18 02:18:51;;;;;;;25.13;16.25;;;6.60;99.90;;;;;;4992259;28;20072;-73
2022/11/18 02:21:41;;;;;;;28.88;17.35;;;6.60;99.90;;;;;;4992221;28;20045;-73
2022/11/18 02:24:47;;;;;;;27.90;17.45;;;6.60;99.90;;;;;;4990821;28;20419;-74
2022/11/18 02:27:42;;;;;;;28.15;18.50;;;6.60;99.90;;;;;;4899132;29;20040;-72
2022/11/18 02:30:10;;;;;;;28.17;18.02;;;6.60;99.90;;;;;;4907385;29;20509;-72
2022/11/18 02:32:39;;;;;;;27.67;18.33;;;6.60;99.90;;;;;;4968162;28;20056;-73
2022/11/18 02:35:15;;;;;;;30.50;18.35;;;6.60;99.90;;;;;;4993960;28;20041;-72
2022/11/18 02:37:57;;;;;;;27.23;17.50;;;6.60;99.90;;;;;;4992341;28;20045;-73
2022/11/18 02:40:48;;;;;;;25.98;17.20;;;6.60;99.90;;;;;;4992979;28;20080;-73
2022/11/18 02:43:25;;;;;;;30.33;17.50;;;6.50;99.90;;;;;;4982364;28;20076;-73
2022/11/18 02:45:55;;;;;;;27.02;17.15;;;6.60;99.90;;;;;;4993657;28;20127;-72
2022/11/18 02:48:25;;;;;;;29.88;17.80;;;6.60;99.90;;;;;;4990944;28;20048;-73
2022/11/18 02:50:53;;;;;;;32.20;18.08;;;6.60;99.90;;;;;;4993627;28;20116;-73
2022/11/18 02:53:20;;;;;;;30.13;18.25;;;6.60;99.90;;;;;;4993687;28;20088;-74
2022/11/18 02:55:47;;;;;;;28.50;16.95;;;6.60;99.90;;;;;;4991277;28;20120;-72
2022/11/18 02:58:15;;;;;;;29.27;16.98;;;6.60;99.90;;;;;;4991807;28;20414;-73
2022/11/18 03:00:41;;;;;;;28.73;16.70;;;6.60;99.90;;;;;;4993679;28;20092;-72
2022/11/18 03:03:30;;;;;;;28.23;17.40;;;6.60;99.90;;;;;;4992743;28;20049;-72
2022/11/18 03:06:14;;;;;;;31.20;17.70;;;6.60;99.90;;;;;;4992530;28;20129;-73
2022/11/18 03:08:48;;;;;;;29.48;17.95;;;6.50;99.90;;;;;;4993025;28;20037;-73
2022/11/18 03:11:21;;;;;;;30.60;17.60;;;6.60;99.90;;;;;;4976545;28;20042;-73
2022/11/18 03:14:19;;;;;;;28.23;17.27;;;6.60;99.90;;;;;;4993175;28;20046;-72
2022/11/18 03:16:59;;;;;;;28.42;17.38;;;6.60;99.90;;;;;;4953810;28;20404;-73
2022/11/18 03:19:44;;;;;;;26.38;16.33;;;6.60;99.90;;;;;;4993257;28;20049;-73
2022/11/18 03:22:22;;;;;;;28.75;17.52;;;6.60;99.90;;;;;;4990317;28;20049;-73
2022/11/18 03:25:04;;;;;;;27.38;17.55;;;6.60;99.90;;;;;;4992625;28;20046;-72
2022/11/18 03:28:07;;;;;;;30.88;18.17;;;6.60;99.90;;;;;;4988773;28;20491;-73
2022/11/18 03:30:35;;;;;;;27.35;17.15;;;6.50;99.90;;;;;;4978857;28;20042;-73
2022/11/18 03:33:09;;;;;;;28.48;16.45;;;6.50;99.90;;;;;;4993281;28;20083;-72
2022/11/18 03:35:38;;;;;;;32.25;17.55;;;6.60;99.90;;;;;;4978768;28;20037;-74
2022/11/18 03:38:08;;;;;;;28.52;17.70;;;6.50;99.90;;;;;;4995281;28;20052;-73
2022/11/18 03:40:36;;;;;;;28.52;17.33;;;6.50;99.90;;;;;;4991771;28;20050;-72
2022/11/18 03:43:07;;;;;;;29.02;16.67;;;6.50;99.90;;;;;;4997059;28;20045;-72
2022/11/18 03:46:01;;;;;;;26.65;17.30;;;6.50;99.90;;;;;;4993525;28;20052;-73
2022/11/18 03:48:32;;;;;;;28.42;17.25;;;6.50;99.90;;;;;;4995223;28;20049;-72
2022/11/18 03:51:06;;;;;;;26.27;16.23;;;6.50;99.90;;;;;;4996766;28;20516;-72
2022/11/18 03:53:36;;;;;;;27.40;17.08;;;6.50;99.90;;;;;;4996004;28;20038;-72
2022/11/18 03:56:18;;;;;;;27.02;16.13;;;6.50;99.90;;;;;;4996695;28;20528;-73
2022/11/18 03:58:56;;;;;;;26.98;16.63;;;6.50;99.90;;;;;;4995649;28;20038;-72
2022/11/18 04:01:37;;;;;;;27.13;16.55;;;6.50;99.90;;;;;;4996472;28;20048;-73
2022/11/18 04:04:03;;;;;;;24.73;16.05;;;6.50;99.90;;;;;;4979707;28;20050;-72
2022/11/18 04:06:41;;;;;;;26.33;16.05;;;6.40;99.90;;;;;;4995525;28;20041;-72
2022/11/18 04:09:22;;;;;;;25.67;16.00;;;6.50;99.90;;;;;;4995203;28;20454;-72
2022/11/18 04:12:03;;;;;;;25.88;16.20;;;6.50;99.90;;;;;;4996340;28;20042;-72
2022/11/18 04:14:37;;;;;;;25.52;15.68;;;6.50;99.90;;;;;;4996531;28;20045;-72
2022/11/18 04:17:18;;;;;;;26.73;16.20;;;6.50;99.90;;;;;;4996497;28;20049;-72
2022/11/18 04:19:44;;;;;;;25.35;15.95;;;6.40;99.90;;;;;;4994985;28;20488;-72
2022/11/18 04:22:10;;;;;;;25.88;16.95;;;6.40;99.90;;;;;;4996108;28;20034;-72
2022/11/18 04:24:35;;;;;;;26.27;15.20;;;6.40;99.90;;;;;;4995489;28;20547;-72
2022/11/18 04:27:02;;;;;;;23.95;14.95;;;6.40;99.90;;;;;;4996267;28;20073;-72
2022/11/18 04:29:28;;;;;;;24.23;15.05;;;6.40;99.90;;;;;;4995849;28;20046;-73
2022/11/18 04:31:54;;;;;;;25.50;16.27;;;6.40;99.90;;;;;;4980038;28;20046;-72
2022/11/18 04:34:19;;;;;;;23.95;15.35;;;6.40;99.90;;;;;;4979037;28;20049;-73
2022/11/18 04:36:45;;;;;;;25.73;15.93;;;6.40;99.90;;;;;;5012483;28;20038;-73
2022/11/18 04:39:10;;;;;;;25.27;14.73;;;6.40;99.90;;;;;;4994875;28;20045;-73
2022/11/18 04:41:54;;;;;;;23.67;14.20;;;6.40;99.90;;;;;;4994885;28;20042;-73
2022/11/18 04:44:30;;;;;;;22.65;14.70;;;6.40;99.90;;;;;;4993731;28;20125;-73
2022/11/18 04:46:57;;;;;;;23.25;15.02;;;6.40;99.90;;;;;;4999917;28;20038;-74
2022/11/18 04:49:24;;;;;;;24.52;14.73;;;6.40;99.90;;;;;;4994096;28;20041;-72
2022/11/18 04:51:50;;;;;;;22.45;14.23;;;6.40;99.90;;;;;;4995561;28;20124;-73
2022/11/18 04:54:16;;;;;;;22.45;14.77;;;6.30;99.90;;;;;;4993550;28;20038;-74
2022/11/18 04:56:42;;;;;;;23.75;14.60;;;6.40;99.90;;;;;;4994811;28;20092;-72
2022/11/18 04:59:08;;;;;;;23.33;14.00;;;6.40;99.90;;;;;;4995360;28;20458;-72
2022/11/18 05:01:34;;;;;;;21.80;14.10;;;6.40;99.90;;;;;;4995594;28;20085;-73
2022/11/18 05:04:01;;;;;;;22.23;14.27;;;6.30;99.90;;;;;;4995580;28;20045;-73
2022/11/18 05:06:27;;;;;;;25.13;14.70;;;6.30;99.90;;;;;;4978491;28;20038;-74
2022/11/18 05:08:52;;;;;;;20.25;13.60;;;6.40;99.90;;;;;;4994323;28;20100;-73
2022/11/18 05:14:02;;;;;;;21.27;14.18;;;6.30;99.90;;;;;;4993571;28;20049;-73
2022/11/18 05:16:27;;;;;;;24.90;13.80;;;6.30;99.90;;;;;;4995109;28;20038;-72
2022/11/18 05:18:53;;;;;;;20.67;13.05;;;6.30;99.90;;;;;;4995044;28;20041;-71
2022/11/18 05:21:18;;;;;;;20.02;13.57;;;6.30;99.90;;;;;;4995127;28;20041;-73
2022/11/18 05:23:44;;;;;;;21.10;13.40;;;6.30;99.90;;;;;;4993898;28;20069;-74
2022/11/18 05:26:10;;;;;;;23.42;13.90;;;6.30;99.90;;;;;;4993223;28;20034;-72
2022/11/18 05:28:37;;;;;;;21.35;13.55;;;6.30;99.90;;;;;;4993913;28;20042;-73
2022/11/18 05:31:07;;;;;;;23.00;13.88;;;6.20;99.90;;;;;;4995032;28;20057;-72
2022/11/18 05:33:33;;;;;;;23.63;14.20;;;6.20;99.90;;;;;;4993461;28;20046;-73
2022/11/18 05:36:03;;;;;;;23.50;13.70;;;6.20;99.90;;;;;;4993783;28;20045;-73
2022/11/18 05:38:31;;;;;;;27.00;14.43;;;6.20;99.90;;;;;;4994507;28;20510;-74
2022/11/18 05:40:57;;;;;;;22.40;13.68;;;6.20;99.90;;;;;;4994772;28;20056;-72
2022/11/18 05:43:22;;;;;;;26.95;14.27;;;6.20;99.90;;;;;;4994019;28;20515;-72
2022/11/18 05:45:50;;;;;;;23.02;14.18;;;6.20;99.90;;;;;;5007835;28;20053;-74
2022/11/18 05:48:15;;;;;;;26.88;14.80;;;6.20;99.90;;;;;;4994589;28;20048;-72
2022/11/18 05:50:41;;;;;;;25.13;14.55;;;6.20;99.90;;;;;;5012218;28;20064;-74
2022/11/18 05:53:07;;;;;;;22.75;14.15;;;6.20;99.90;;;;;;4994573;28;20041;-72
2022/11/18 05:56:17;;;;;;;24.73;14.23;;;6.20;99.90;;;;;;4993755;28;20049;-73
2022/11/18 05:58:43;;;;;;;24.75;14.35;;;6.20;99.90;;;;;;4989571;28;20060;-72
2022/11/18 06:01:09;;;;;;;24.17;14.60;;;6.20;99.90;;;;;;4992717;28;20045;-73
2022/11/18 06:03:37;;;;;;;24.98;14.40;;;6.20;99.90;;;;;;4993568;28;20041;-72
2022/11/18 06:06:05;;;;;;;24.90;13.93;;;6.10;99.90;;;;;;4992528;28;20382;-73
2022/11/18 06:08:37;;;;;;;24.83;14.52;;;6.10;99.90;;;;;;4998526;28;20061;-72
2022/11/18 06:11:05;;;;;;;25.85;14.70;;;6.10;99.90;;;;;;4994403;28;20277;-74
2022/11/18 06:13:38;;;;;;;24.15;13.65;;;6.10;99.90;;;;;;4993086;28;20037;-72
2022/11/18 06:16:03;;;;;;;24.92;14.23;;;6.10;99.90;;;;;;4993411;28;20103;-72
2022/11/18 06:18:31;;;;;;;26.50;14.07;;;6.10;99.90;;;;;;4993603;28;20034;-74
2022/11/18 06:20:59;;;;;;;24.27;13.55;;;6.10;99.90;;;;;;4994091;28;20050;-73
2022/11/18 06:23:31;;;;;;;26.55;15.13;;;6.10;99.90;;;;;;4994346;28;20049;-73
2022/11/18 06:25:56;;;;;;;24.02;14.48;;;6.10;99.90;;;;;;4991974;28;20041;-73
2022/11/18 06:28:22;;;;;;;25.52;14.15;;;6.10;99.90;;;;;;4993678;28;20145;-73
2022/11/18 06:30:48;;;;;;;25.45;14.55;;;6.10;99.90;;;;;;4992839;28;20037;-73
2022/11/18 06:33:13;;;;;;;27.33;14.52;;;6.10;99.90;;;;;;4991162;28;20109;-74
2022/11/18 06:35:41;;;;;;;27.75;15.57;;;6.10;99.90;;;;;;4993386;28;20550;-73
2022/11/18 06:38:06;;;;;;;27.67;14.68;;;6.00;99.90;;;;;;4993958;28;20412;-72
2022/11/18 06:40:32;;;;;;;25.73;15.95;;;6.10;99.90;;;;;;4992873;28;20033;-72
2022/11/18 06:46:54;;;;;;;27.85;15.65;;;6.00;99.90;;;;;;4991722;28;20045;-74
2022/11/18 06:48:27;;;;;;;25.02;14.30;;;6.10;99.90;;;;;;4992188;28;20073;-73
2022/11/18 06:50:52;;;;;;;35.00;15.98;;;6.00;99.90;;;;;;4991669;28;20610;-72
2022/11/18 06:53:18;;;;;;;30.70;15.77;;;6.10;99.90;;;;;;4989628;28;20528;-72
2022/11/18 06:55:43;;;;;;;28.17;15.73;;;6.00;99.90;;;;;;4974881;28;20057;-72
2022/11/18 06:58:09;;;;;;;29.90;15.50;;;6.00;99.90;;;;;;4991716;28;20034;-73
2022/11/18 07:00:35;;;;;;;30.20;15.15;;;6.10;99.90;;;;;;4991883;28;20046;-72
2022/11/18 07:03:01;;;;;;;28.65;15.38;;;6.10;99.90;;;;;;4973706;28;20056;-73
2022/11/18 07:05:26;;;;;;;30.27;15.85;;;6.00;99.90;;;;;;4990865;28;20499;-73
2022/11/18 07:07:52;;;;;;;31.73;16.58;;;6.00;99.90;;;;;;4990834;28;20048;-73
2022/11/18 07:10:19;;;;;;;29.92;16.70;;;6.00;99.90;;;;;;5011576;28;20045;-75
2022/11/18 07:12:44;;;;;;;29.92;15.68;;;6.00;99.90;;;;;;4997290;28;20497;-75
2022/11/18 07:15:10;;;;;;;29.75;15.63;;;6.00;99.90;;;;;;4997712;28;20049;-75
2022/11/18 07:17:35;;;;;;;27.58;14.10;;;6.00;99.90;;;;;;4997243;28;20100;-74
2022/11/18 07:20:01;;;;;;;25.13;14.98;;;6.00;99.90;;;;;;4997469;28;20042;-74
2022/11/18 07:22:26;;;;;;;29.30;15.95;;;6.00;99.90;;;;;;4997437;28;20090;-76
2022/11/18 07:24:52;;;;;;;25.83;14.52;;;6.00;99.90;;;;;;4996603;28;20196;-74
2022/11/18 07:27:17;;;;;;;27.83;14.98;;;6.00;99.90;;;;;;4988981;28;20173;-76
2022/11/18 07:29:43;;;;;;;26.95;14.50;;;6.00;99.90;;;;;;4996888;28;20414;-72
2022/11/18 07:32:08;;;;;;;31.02;15.88;;;6.00;99.90;;;;;;4995884;28;20045;-72
2022/11/18 07:34:34;;;;;;;30.25;15.50;;;6.00;99.90;;;;;;4995180;28;20112;-73
2022/11/18 07:36:59;;;;;;;28.65;15.80;;;6.00;99.90;;;;;;4995457;28;20124;-73
2022/11/18 07:39:25;;;;;;;29.65;14.55;;;6.00;99.90;;;;;;4992883;28;20029;-74
2022/11/18 07:41:50;;;;;;;29.08;15.23;;;6.00;99.90;;;;;;4994296;28;20113;-75
2022/11/18 07:44:16;;;;;;;31.33;15.45;;;6.00;99.90;;;;;;4991306;28;20042;-75
2022/11/18 07:46:42;;;;;;;25.92;14.50;;;5.90;99.90;;;;;;5009937;28;20532;-75
2022/11/18 07:49:08;;;;;;;29.48;14.73;;;5.90;99.90;;;;;;4994690;28;20042;-75
2022/11/18 07:51:35;;;;;;;24.98;14.48;;;6.00;99.90;;;;;;5011854;28;20038;-75
2022/11/18 07:54:09;;;;;;;26.38;14.68;;;5.90;99.90;;;;;;4996935;28;20073;-75
2022/11/18 07:56:34;;;;;;;30.60;14.75;;;5.90;99.90;;;;;;4982804;28;20450;-74
2022/11/18 07:59:00;;;;;;;22.35;13.75;;;5.90;99.90;;;;;;4996476;28;20042;-75
2022/11/18 08:01:29;;;;;;;25.70;14.18;;;5.90;99.90;;;;;;5009085;28;20046;-75
2022/11/18 08:03:56;;;;;;;28.25;14.70;;;5.90;99.90;;;;;;4993930;28;20052;-75
2022/11/18 08:06:21;;;;;;;27.35;14.13;;;5.90;99.90;;;;;;4996273;28;20073;-73
2022/11/18 08:08:47;;;;;;;29.65;14.45;;;5.90;99.90;;;;;;4996075;28;20072;-73
2022/11/18 08:11:16;;;;;;;30.35;14.60;;;5.90;99.90;;;;;;4996408;28;20038;-72
2022/11/18 08:13:41;;;;;;;26.02;13.27;;;5.90;99.90;;;;;;4995922;28;20034;-73
2022/11/18 08:16:13;;;;;;;25.42;13.38;;;5.90;99.90;;;;;;4994400;28;20064;-72
2022/11/18 08:18:38;;;;;;;25.60;13.25;;;5.90;99.90;;;;;;4989015;28;20042;-72
2022/11/18 08:21:04;;;;;;;22.77;12.57;;;5.90;99.90;;;;;;4993355;28;20045;-72
2022/11/18 08:23:30;;;;;;;22.45;12.52;;;5.90;99.90;;;;;;4992398;28;20118;-75
2022/11/18 08:26:10;;;;;;;22.50;11.93;;;5.90;99.90;;;;;;4994931;28;20108;-73
2022/11/18 08:28:35;;;;;;;26.83;13.02;;;5.90;99.90;;;;;;4992959;28;20048;-72
2022/11/18 08:31:12;;;;;;;25.85;13.57;;;5.90;99.90;;;;;;4994372;28;20631;-72
2022/11/18 08:33:39;;;;;;;20.75;12.63;;;6.00;99.90;;;;;;4994457;28;20038;-73
2022/11/18 08:36:09;;;;;;;21.73;11.65;;;6.00;99.90;;;;;;4994358;28;20053;-73
2022/11/18 08:38:35;;;;;;;22.25;12.25;;;6.00;99.90;;;;;;4994336;28;20034;-72
2022/11/18 08:41:00;;;;;;;22.23;12.63;;;6.00;99.90;;;;;;4994220;28;20096;-73
2022/11/18 08:43:26;;;;;;;22.80;11.80;;;6.00;99.90;;;;;;4995642;28;20411;-72
2022/11/18 08:45:52;;;;;;;24.77;12.68;;;6.00;99.90;;;;;;4995875;28;20049;-73
2022/11/18 08:48:17;;;;;;;21.33;11.88;;;6.00;99.90;;;;;;4995624;28;20053;-72
2022/11/18 08:50:43;;;;;;;21.80;11.25;;;6.00;99.90;;;;;;4979602;28;20419;-72
2022/11/18 08:53:08;;;;;;;20.70;11.63;;;6.00;99.90;;;;;;4995446;28;20040;-72
2022/11/18 08:55:34;;;;;;;20.63;11.88;;;6.00;99.90;;;;;;4995719;28;20514;-73
2022/11/18 08:57:59;;;;;;;19.17;11.70;;;6.00;99.90;;;;;;4995680;28;20034;-72
2022/11/18 09:00:25;;;;;;;19.90;11.35;;;6.00;99.90;;;;;;4995586;28;20112;-72
2022/11/18 09:02:50;;;;;;;18.90;11.15;;;6.00;99.90;;;;;;5010680;28;20053;-73
2022/11/18 09:05:16;;;;;;;20.20;11.30;;;6.00;99.90;;;;;;4988090;28;20044;-73
2022/11/18 09:07:41;;;;;;;19.85;10.60;;;6.00;99.90;;;;;;4994954;28;20113;-73
2022/11/18 09:10:07;;;;;;;18.52;10.38;;;5.90;99.90;;;;;;4995060;28;20042;-72
2022/11/18 09:12:33;;;;;;;18.08;10.63;;;5.90;99.90;;;;;;4995329;28;20037;-72
2022/11/18 09:14:58;;;;;;;16.00;9.93;;;5.90;99.90;;;;;;4995224;28;20076;-73
2022/11/18 09:17:24;;;;;;;19.23;10.32;;;5.90;99.90;;;;;;4995117;28;20038;-72
2022/11/18 09:19:49;;;;;;;17.77;9.55;;;5.90;99.90;;;;;;4994914;28;20033;-72
2022/11/18 09:22:15;;;;;;;17.67;10.20;;;6.00;99.90;;;;;;4995331;28;20029;-72
2022/11/18 09:24:42;;;;;;;19.00;10.55;;;5.90;99.90;;;;;;4978306;28;20041;-72
2022/11/18 09:27:07;;;;;;;18.80;9.80;;;5.90;99.90;;;;;;4994801;28;20045;-72
2022/11/18 09:29:33;;;;;;;15.43;9.68;;;5.90;99.90;;;;;;4994441;28;20435;-72
2022/11/18 09:32:00;;;;;;;19.00;10.30;;;6.00;99.90;;;;;;4993974;28;20061;-73
2022/11/18 09:34:27;;;;;;;18.42;10.40;;;5.90;99.90;;;;;;4994473;28;20045;-73
2022/11/18 09:36:54;;;;;;;15.10;9.45;;;5.90;99.90;;;;;;4995133;28;20385;-73
2022/11/18 09:39:24;;;;;;;15.80;9.23;;;6.00;99.90;;;;;;5010095;28;20381;-72
2022/11/18 09:42:11;;;;;;;15.38;9.35;;;6.00;99.90;;;;;;4994185;28;20077;-72
2022/11/18 09:44:36;;;;;;;15.65;8.75;;;6.00;99.90;;;;;;4993100;28;20035;-72
2022/11/18 09:47:21;;;;;;;16.70;9.48;;;6.00;99.90;;;;;;4987972;28;20104;-72
2022/11/18 09:49:48;;;;;;;16.10;8.90;;;6.00;99.90;;;;;;5010302;28;20050;-74
2022/11/18 09:52:19;;;;;;;15.50;9.15;;;6.00;99.90;;;;;;4994672;28;20113;-72
2022/11/18 09:54:45;;;;;;;17.17;9.32;;;6.00;99.90;;;;;;4994159;28;20169;-72
2022/11/18 09:57:18;;;;;;;19.48;9.30;;;6.00;99.90;;;;;;4994694;28;20045;-73
2022/11/18 09:59:44;;;;;;;17.00;9.27;;;5.90;99.90;;;;;;4994084;28;20121;-72
2022/11/18 10:02:31;;;;;;;18.77;9.80;;;5.90;99.90;;;;;;4994169;28;20496;-73
2022/11/18 10:05:41;;;;;;;16.13;9.15;;;5.90;99.90;;;;;;4974206;28;20491;-73
2022/11/18 10:08:34;;;;;;;16.55;9.82;;;5.80;99.90;;;;;;4953675;28;20121;-73
2022/11/18 10:11:13;;;;;;;18.73;9.63;;;5.80;99.90;;;;;;4991111;28;20038;-72
2022/11/18 10:13:45;;;;;;;14.25;9.10;;;5.80;99.90;;;;;;4993612;28;20049;-72
2022/11/18 10:16:31;;;;;;;17.90;10.00;;;5.70;99.90;;;;;;4993867;28;20046;-73
2022/11/18 10:18:59;;;;;;;16.98;9.73;;;5.80;99.90;;;;;;4993814;28;20060;-72
2022/11/18 10:21:44;;;;;;;19.35;10.70;;;5.70;99.90;;;;;;4993909;28;20077;-72
2022/11/18 10:24:12;;;;;;;;;;;5.70;99.90;;;;;;4974406;28;20100;-73
2022/11/18 10:26:40;;;;;;;17.38;9.68;;;5.70;99.90;;;;;;4990412;28;19918;-72
2022/11/18 10:29:09;;;;;;;17.63;10.38;;;5.80;99.90;;;;;;4993959;28;20403;-72
2022/11/18 10:32:14;;;;;;;20.98;11.23;;;5.80;99.90;;;;;;4993766;28;20045;-72
2022/11/18 10:34:51;;;;;;;19.35;10.80;;;5.80;99.90;;;;;;4972674;28;20057;-75
2022/11/18 10:37:32;;;;;;;20.05;10.60;;;5.80;99.90;;;;;;4989446;28;20120;-73
2022/11/18 10:39:59;;;;;;;19.20;11.32;;;5.80;99.90;;;;;;4977496;28;20034;-73
2022/11/18 10:42:39;;;;;;;19.42;11.40;;;5.80;99.90;;;;;;4993815;28;20566;-72
2022/11/18 10:45:20;;;;;;;20.25;11.75;;;5.80;99.90;;;;;;4993875;28;20067;-73
2022/11/18 10:48:07;;;;;;;24.98;13.15;;;5.80;99.90;;;;;;4993361;28;20053;-73
2022/11/18 10:50:41;;;;;;;20.90;12.02;;;5.70;99.90;;;;;;4993775;28;20042;-72
2022/11/18 10:53:28;;;;;;;22.98;11.68;;;5.80;99.90;;;;;;4993742;28;20407;-72
2022/11/18 10:56:06;;;;;;;21.25;12.00;;;5.70;99.90;;;;;;4993580;28;20064;-72
2022/11/18 10:58:38;;;;;;;22.52;12.35;;;5.70;99.90;;;;;;4993346;28;20042;-73
2022/11/18 11:01:20;;;;;;;22.10;12.18;;;5.70;99.90;;;;;;4988659;28;20542;-72
2022/11/18 11:04:01;;;;;;;21.70;12.25;;;5.70;99.90;;;;;;4978496;28;20106;-73
2022/11/18 11:06:26;;;;;;;19.45;11.43;;;5.60;99.90;;;;;;4973823;28;20075;-72
2022/11/18 11:09:00;;;;;;;23.60;11.70;;;5.60;99.90;;;;;;4973621;28;20524;-71
2022/11/18 11:12:01;;;;;;;19.63;11.77;;;5.60;99.90;;;;;;4974176;28;20416;-74
2022/11/18 11:14:52;;;;;;;20.60;12.00;;;5.60;99.90;;;;;;4973194;28;20089;-73
2022/11/18 11:17:29;;;;;;;21.80;12.75;;;5.60;99.90;;;;;;4974039;28;20038;-72
2022/11/18 11:20:17;;;;;;;20.00;12.40;;;5.60;99.90;;;;;;4984482;28;20499;-73
2022/11/18 11:22:44;;;;;;;25.75;14.40;;;5.50;99.90;;;;;;4978852;28;20065;-73
2022/11/18 11:25:17;;;;;;;26.52;14.68;;;5.50;99.90;;;;;;4975967;28;20037;-72
2022/11/18 11:27:58;;;;;;;28.02;17.10;;;5.40;99.90;;;;;;4992735;28;20045;-72
2022/11/18 11:30:23;;;;;;;32.05;17.27;;;5.40;99.90;;;;;;4993380;28;20042;-72
2022/11/18 11:33:11;;;;;;;33.58;18.42;;;5.40;99.90;;;;;;4976078;28;20107;-73
2022/11/18 11:35:50;;;;;;;33.85;18.45;;;5.30;99.90;;;;;;4992451;28;20057;-73
2022/11/18 11:38:57;;;;;;;31.30;17.85;;;5.20;99.90;;;;;;4977390;28;20427;-72
2022/11/18 11:41:26;;;;;;;33.63;17.83;;;5.20;99.90;;;;;;4993026;28;20045;-72
2022/11/18 11:43:59;;;;;;;33.85;18.80;;;5.10;99.90;;;;;;4993058;28;20053;-72
2022/11/18 11:46:36;;;;;;;32.92;17.27;;;5.10;99.90;;;;;;4993369;28;20046;-73
2022/11/18 11:49:24;;;;;;;31.85;17.27;;;5.10;99.90;;;;;;4992872;28;20050;-72
2022/11/18 11:51:55;;;;;;;29.23;16.20;;;5.10;99.90;;;;;;4993103;28;20125;-74
2022/11/18 11:54:46;;;;;;;30.55;16.88;;;5.10;99.90;;;;;;4976839;28;20080;-71
2022/11/18 11:57:49;;;;;;;28.25;16.58;;;5.00;99.90;;;;;;4995344;28;20081;-72
2022/11/18 12:00:17;;;;;;;28.77;15.63;;;5.00;99.90;;;;;;4952690;28;20079;-72
2022/11/18 12:03:01;;;;;;;27.13;15.18;;;5.00;99.90;;;;;;4997064;28;20396;-73
2022/11/18 12:05:34;;;;;;;27.75;14.85;;;5.00;99.90;;;;;;4996917;28;20042;-73
2022/11/18 12:08:16;;;;;;;26.73;14.35;;;4.90;99.90;;;;;;4996245;28;20059;-73
2022/11/18 12:10:58;;;;;;;26.73;13.95;;;4.90;99.90;;;;;;4996475;28;20053;-74
2022/11/18 12:13:30;;;;;;;25.92;14.02;;;4.90;99.90;;;;;;4996794;28;20037;-72
2022/11/18 12:16:05;;;;;;;26.08;13.98;;;4.90;99.90;;;;;;4996736;28;20130;-73
2022/11/18 12:18:49;;;;;;;31.00;15.95;;;4.90;99.90;;;;;;5013646;28;20044;-73
2022/11/18 12:21:39;;;;;;;32.55;16.08;;;4.90;99.90;;;;;;4996390;28;20096;-73
2022/11/18 12:24:30;;;;;;;28.70;16.15;;;4.90;99.90;;;;;;4996324;28;20074;-74
2022/11/18 12:26:58;;;;;;;29.13;15.80;;;4.90;99.90;;;;;;4996040;28;20049;-73
2022/11/18 12:29:29;;;;;;;29.40;16.52;;;4.90;99.90;;;;;;4995919;28;20046;-73
2022/11/18 12:31:57;;;;;;;30.45;15.52;;;4.80;99.90;;;;;;4996338;28;20511;-74
2022/11/18 12:34:40;;;;;;;29.65;15.70;;;4.80;99.90;;;;;;4996435;28;20038;-73
2022/11/18 12:37:32;;;;;;;27.80;16.13;;;4.90;99.90;;;;;;4995990;28;20042;-73
2022/11/18 12:39:59;;;;;;;29.42;15.82;;;4.80;99.90;;;;;;4995015;28;20054;-73
2022/11/18 12:45:42;;;;;;;25.75;15.80;;;4.70;99.90;;;;;;4995967;28;20125;-73
2022/11/18 12:48:25;;;;;;;31.45;15.98;;;4.70;99.90;;;;;;4995682;28;20045;-72
2022/11/18 12:50:53;;;;;;;29.17;16.15;;;4.70;99.90;;;;;;4995574;28;20064;-73
2022/11/18 12:53:49;;;;;;;30.30;17.23;;;4.80;99.90;;;;;;4979840;28;20472;-73
2022/11/18 12:56:18;;;;;;;28.98;16.48;;;4.80;99.90;;;;;;4979727;28;20499;-73
2022/11/18 12:58:45;;;;;;;27.88;16.25;;;4.80;99.90;;;;;;4995400;28;20045;-74
2022/11/18 13:01:14;;;;;;;29.50;16.08;;;4.70;99.90;;;;;;4995639;28;20289;-74
2022/11/18 13:03:40;;;;;;;27.73;15.73;;;4.80;99.90;;;;;;4995729;28;20046;-75
2022/11/18 13:06:20;;;;;;;27.58;15.85;;;4.70;99.90;;;;;;4995686;28;20048;-75
2022/11/18 13:08:53;;;;;;;28.63;16.48;;;4.80;99.90;;;;;;4994941;28;20042;-73
2022/11/18 13:19:34;;;;;;;;;;;4.70;99.90;;;;;;4995491;28;20125;-72
2022/11/18 13:24:47;;;;;;;25.85;14.52;;;4.70;99.90;;;;;;4995201;28;20101;-73
2022/11/18 13:27:40;;;;;;;27.15;15.07;;;4.80;99.90;;;;;;4995224;28;20180;-73